Lauderdale, Mississippi
Current Conditions -  °F | °C
As of 12:56 AM on Monday 24 Nov 2014 (Local Time) from KNMM Reporting Station
Scattered Clouds Scattered Clouds  
Wind Chill: 65°   Ceiling: Unl
Heat Index: 65°   Visibility: 10mi
Dew Point: 60°   Wind: 12mph
Humidity: 84%   Direction: 210°SSW
Pressure: 29.67"   Gusts: 16mph
Location:  32.52°N, 88.51°W
Report Text: KNMM 240656Z AUTO 21010G14KT 180V250 10SM SCT020 18/16 A2967 RMK AO2 SLP056 T01830156 $
Loading
Personal Weather Stations






























Interactive Weather Map New forecast layout! Learn more

10-Day Weather Forecast

Advertisements
Track Severe Weather on mobile